Time;durP1;ratioP1;P1;durP2;ratioP2;P2;SDS_P1;SDS_P2;PMS_P1;PMS_P2;Temp;Humidity;BMP_temperature;BMP_pressure;BME280_temperature;BME280_humidity;BME280_pressure;Samples;Min_cycle;Max_cycle;Signal;HPM_P1;HPM_P2
2021/12/11 00:00:16;;;;;;;20.67;9.18;;;8.90;69.80;;;;;;4944979;28;20034;-91
2021/12/11 00:02:44;;;;;;;16.25;6.50;;;8.90;69.80;;;;;;4975635;28;20034;-91
2021/12/11 00:05:13;;;;;;;8.00;3.90;;;8.80;69.80;;;;;;4945821;28;20042;-91
2021/12/11 00:07:39;;;;;;;8.98;3.63;;;8.90;69.80;;;;;;4947062;28;20177;-91
2021/12/11 00:10:23;;;;;;;10.68;3.55;;;8.80;69.80;;;;;;4967262;28;20034;-92
2021/12/11 00:12:56;;;;;;;6.22;3.47;;;8.80;69.80;;;;;;4963872;28;20030;-91
2021/12/11 00:15:39;;;;;;;8.57;3.80;;;8.80;69.80;;;;;;4969985;28;20040;-89
2021/12/11 00:18:12;;;;;;;8.77;2.88;;;8.80;69.70;;;;;;4976291;28;20041;-88
2021/12/11 00:20:52;;;;;;;5.43;2.38;;;8.80;69.70;;;;;;4971526;28;20076;-91
2021/12/11 00:23:39;;;;;;;5.75;2.75;;;8.80;69.70;;;;;;4984682;28;20047;-89
2021/12/11 00:26:08;;;;;;;5.20;2.30;;;8.80;69.70;;;;;;4971240;28;20113;-91
2021/12/11 00:28:47;;;;;;;9.23;2.63;;;8.80;69.80;;;;;;4967297;28;20034;-91
2021/12/11 00:31:13;;;;;;;9.38;3.42;;;8.70;69.70;;;;;;4983880;28;20446;-91
2021/12/11 00:33:39;;;;;;;7.78;2.60;;;8.70;69.70;;;;;;4995621;28;20093;-90
2021/12/11 00:36:11;;;;;;;6.38;1.65;;;9.20;70.10;;;;;;5000008;28;20041;-92
2021/12/11 00:38:37;;;;;;;8.43;2.03;;;8.70;69.70;;;;;;4981923;28;20092;-92
2021/12/11 00:41:09;;;;;;;7.90;1.65;;;8.60;69.70;;;;;;5002044;28;20193;-89
2021/12/11 00:43:36;;;;;;;4.38;1.63;;;8.60;69.80;;;;;;4982916;28;20039;-91
2021/12/11 00:46:16;;;;;;;10.23;1.70;;;8.60;69.80;;;;;;4998680;28;20072;-89
2021/12/11 00:48:42;;;;;;;6.88;1.75;;;8.50;69.80;;;;;;5001124;28;20038;-91
2021/12/11 00:51:14;;;;;;;4.88;1.65;;;8.50;69.80;;;;;;4978493;28;20030;-91
2021/12/11 00:53:52;;;;;;;4.10;2.20;;;8.40;69.80;;;;;;4985936;28;20034;-91
2021/12/11 00:56:25;;;;;;;6.15;2.08;;;8.40;69.80;;;;;;4971548;28;20113;-91
2021/12/11 00:58:55;;;;;;;8.35;2.17;;;8.40;69.90;;;;;;4979029;28;20602;-91
2021/12/11 01:01:27;;;;;;;8.90;1.90;;;8.70;70.20;;;;;;4995190;28;20030;-92
2021/12/11 01:04:03;;;;;;;5.82;2.20;;;8.40;70.10;;;;;;5008927;28;20044;-91
2021/12/11 01:06:39;;;;;;;9.55;2.88;;;8.40;70.20;;;;;;4980398;28;20034;-91
2021/12/11 01:09:16;;;;;;;10.73;1.90;;;8.80;70.40;;;;;;4976856;28;20014;-91
2021/12/11 01:11:57;;;;;;;5.53;2.08;;;8.40;70.20;;;;;;5009447;28;20091;-91
2021/12/11 01:15:00;;;;;;;4.88;1.88;;;8.30;70.20;;;;;;4980312;28;20573;-90
2021/12/11 01:17:42;;;;;;;8.35;2.90;;;8.40;70.30;;;;;;4963758;28;20068;-91
2021/12/11 01:20:18;;;;;;;8.75;2.50;;;8.30;70.20;;;;;;4974096;28;20066;-91
2021/12/11 01:22:43;;;;;;;11.60;2.70;;;8.30;70.20;;;;;;4961995;28;20041;-91
2021/12/11 01:25:20;;;;;;;7.78;2.80;;;8.30;70.60;;;;;;4980778;28;20030;-91
2021/12/11 01:27:54;;;;;;;13.27;3.33;;;8.40;70.30;;;;;;4946031;28;20197;-91
2021/12/11 01:30:35;;;;;;;6.28;2.13;;;8.30;70.30;;;;;;4964274;28;20031;-91
2021/12/11 01:33:03;;;;;;;11.15;2.55;;;8.30;70.20;;;;;;4946557;28;20042;-91
2021/12/11 01:35:29;;;;;;;13.25;2.70;;;8.30;70.20;;;;;;4947393;28;20114;-90
2021/12/11 01:38:08;;;;;;;7.60;2.92;;;8.50;70.40;;;;;;4939941;28;20311;-91
2021/12/11 01:40:34;;;;;;;8.98;2.53;;;8.30;70.30;;;;;;4981925;28;20038;-90
2021/12/11 01:43:04;;;;;;;7.95;2.50;;;8.20;70.20;;;;;;4950666;28;20072;-91
2021/12/11 01:45:31;;;;;;;13.05;3.05;;;8.40;70.40;;;;;;4949970;28;20313;-91
2021/12/11 01:47:57;;;;;;;11.38;2.70;;;8.20;70.20;;;;;;4940806;28;20516;-92
2021/12/11 01:50:38;;;;;;;10.82;2.17;;;8.20;70.30;;;;;;4946512;28;20026;-91
2021/12/11 01:53:26;;;;;;;13.50;3.78;;;8.20;70.30;;;;;;4948661;28;20031;-91
2021/12/11 01:56:20;;;;;;;12.35;3.35;;;8.20;70.30;;;;;;4950397;28;20030;-91
2021/12/11 01:58:59;;;;;;;22.88;5.00;;;8.20;70.30;;;;;;4950601;28;20049;-91
2021/12/11 02:01:53;;;;;;;22.50;5.03;;;8.10;70.20;;;;;;4981943;28;20038;-91
2021/12/11 02:04:26;;;;;;;16.60;4.38;;;8.10;70.30;;;;;;4958497;28;20125;-89
2021/12/11 02:06:53;;;;;;;15.98;4.85;;;8.10;70.30;;;;;;4970752;28;20105;-91
2021/12/11 02:09:27;;;;;;;13.13;3.65;;;8.10;70.30;;;;;;4968497;28;20026;-89
2021/12/11 02:12:16;;;;;;;13.23;2.80;;;8.00;70.30;;;;;;4982092;28;20022;-91
2021/12/11 02:14:48;;;;;;;6.57;2.47;;;8.00;70.30;;;;;;4963121;28;20121;-91
2021/12/11 02:17:53;;;;;;;11.30;3.00;;;8.00;70.30;;;;;;4961137;28;20030;-91
2021/12/11 02:20:35;;;;;;;11.50;3.17;;;8.00;70.90;;;;;;4953099;28;20049;-89
2021/12/11 02:23:01;;;;;;;8.52;2.03;;;7.90;70.30;;;;;;4948446;28;20481;-92
2021/12/11 02:25:38;;;;;;;9.02;2.25;;;7.90;70.40;;;;;;4982085;28;20077;-91
2021/12/11 02:28:14;;;;;;;9.02;2.33;;;7.90;70.50;;;;;;4974766;28;20031;-88
2021/12/11 02:31:19;;;;;;;6.78;1.85;;;7.90;70.40;;;;;;4975597;28;20078;-91
2021/12/11 02:34:18;;;;;;;7.43;1.55;;;7.90;70.50;;;;;;4984467;28;20061;-90
2021/12/11 02:36:51;;;;;;;10.70;1.88;;;7.90;70.50;;;;;;4970015;28;20042;-92
2021/12/11 02:39:46;;;;;;;3.78;1.40;;;8.10;70.60;;;;;;4965154;28;20040;-96
2021/12/11 02:42:29;;;;;;;17.65;5.28;;;7.80;70.70;;;;;;4971503;28;20018;-91
2021/12/11 02:45:12;;;;;;;7.65;2.67;;;7.80;70.70;;;;;;4991560;28;20029;-90
2021/12/11 02:47:49;;;;;;;3.38;1.55;;;7.80;70.70;;;;;;4987328;28;20164;-93
2021/12/11 02:50:28;;;;;;;10.48;1.50;;;8.20;71.00;;;;;;4962835;28;20026;-92
2021/12/11 02:53:19;;;;;;;10.65;1.50;;;8.20;71.00;;;;;;4964885;28;20031;-92
2021/12/11 02:56:04;;;;;;;5.68;1.48;;;8.50;71.10;;;;;;4977034;28;20034;-92
2021/12/11 02:58:35;;;;;;;5.85;1.67;;;8.00;70.80;;;;;;4948678;28;20039;-93
2021/12/11 03:01:22;;;;;;;5.28;1.33;;;8.20;70.80;;;;;;4960676;28;20037;-92
2021/12/11 03:03:58;;;;;;;9.70;1.65;;;8.00;70.60;;;;;;4963649;28;20034;-91
2021/12/11 03:06:27;;;;;;;5.07;0.93;;;8.00;70.50;;;;;;4967682;28;20034;-92
2021/12/11 03:08:58;;;;;;;6.25;1.73;;;8.40;70.70;;;;;;4969691;28;20064;-92
2021/12/11 03:11:28;;;;;;;4.55;1.30;;;8.40;70.70;;;;;;4967334;28;20027;-93
2021/12/11 03:13:55;;;;;;;5.13;1.40;;;8.10;71.10;;;;;;4949657;28;20038;-92
2021/12/11 03:16:26;;;;;;;6.20;1.23;;;8.60;70.80;;;;;;4942700;28;20385;-92
2021/12/11 03:18:54;;;;;;;8.98;1.40;;;8.10;70.40;;;;;;4963714;28;20093;-91
2021/12/11 03:21:20;;;;;;;7.53;1.33;;;8.50;70.60;;;;;;4979139;28;20044;-92
2021/12/11 03:23:47;;;;;;;4.70;1.30;;;8.20;71.00;;;;;;4982314;28;20045;-92
2021/12/11 03:26:13;;;;;;;7.22;1.35;;;8.20;70.40;;;;;;4968220;28;20030;-92
2021/12/11 03:28:39;;;;;;;6.35;1.27;;;8.20;70.30;;;;;;4974958;28;20064;-93
2021/12/11 03:31:07;;;;;;;6.60;1.05;;;8.20;70.30;;;;;;4986719;28;20065;-92
2021/12/11 03:33:43;;;;;;;6.55;1.33;;;8.20;70.20;;;;;;4966885;28;20033;-90
2021/12/11 03:36:13;;;;;;;5.70;1.33;;;8.20;70.10;;;;;;4977279;28;20029;-92
2021/12/11 03:38:42;;;;;;;6.95;1.50;;;8.20;70.10;;;;;;4999031;28;20108;-93
2021/12/11 03:41:09;;;;;;;9.25;1.73;;;8.40;70.20;;;;;;4981276;28;20085;-92
2021/12/11 03:43:35;;;;;;;4.85;1.70;;;8.20;70.10;;;;;;4989646;28;20047;-92
2021/12/11 03:46:06;;;;;;;4.18;1.42;;;8.20;70.00;;;;;;4998188;28;20040;-92
2021/12/11 03:48:42;;;;;;;8.90;1.60;;;8.20;70.00;;;;;;4992234;28;20039;-92
2021/12/11 03:51:11;;;;;;;4.57;1.27;;;8.20;69.90;;;;;;4968481;28;20033;-93
2021/12/11 03:53:38;;;;;;;3.85;1.60;;;8.50;70.10;;;;;;4975278;28;20117;-93
2021/12/11 03:56:09;;;;;;;3.38;1.25;;;8.30;69.90;;;;;;4982914;28;20033;-92
2021/12/11 03:58:36;;;;;;;9.45;1.83;;;8.30;69.90;;;;;;4988142;28;20068;-93
2021/12/11 04:01:10;;;;;;;7.65;1.60;;;8.20;69.80;;;;;;4968390;28;20037;-92
2021/12/11 04:03:38;;;;;;;5.00;1.58;;;8.20;69.70;;;;;;4985016;28;20523;-92
2021/12/11 04:06:08;;;;;;;6.97;1.77;;;8.20;69.70;;;;;;4986100;28;20049;-92
2021/12/11 04:08:42;;;;;;;9.50;2.47;;;8.70;69.90;;;;;;4974949;28;20033;-92
2021/12/11 04:11:22;;;;;;;11.63;3.20;;;8.20;69.60;;;;;;4965500;28;20026;-93
2021/12/11 04:13:51;;;;;;;18.02;5.22;;;8.20;69.60;;;;;;4986196;28;20796;-92
2021/12/11 04:16:18;;;;;;;20.55;5.85;;;8.20;69.50;;;;;;4974848;28;20026;-92
2021/12/11 04:18:44;;;;;;;21.60;7.55;;;8.20;69.50;;;;;;4964322;28;20038;-89
2021/12/11 04:21:11;;;;;;;20.50;7.50;;;8.20;69.50;;;;;;4994881;28;20639;-92
2021/12/11 04:23:37;;;;;;;18.20;6.05;;;8.20;69.50;;;;;;4978486;28;20038;-92
2021/12/11 04:26:04;;;;;;;11.73;4.57;;;8.20;70.00;;;;;;4985444;28;20311;-93
2021/12/11 04:28:35;;;;;;;6.85;3.25;;;8.50;69.60;;;;;;4968045;28;20121;-89
2021/12/11 04:31:08;;;;;;;12.13;3.60;;;8.60;69.60;;;;;;5002637;28;20040;-90
2021/12/11 04:33:40;;;;;;;9.35;3.92;;;8.10;69.40;;;;;;4991022;28;20038;-92
2021/12/11 04:36:22;;;;;;;7.93;3.97;;;8.40;69.50;;;;;;4979684;28;20033;-92
2021/12/11 04:38:50;;;;;;;8.43;3.60;;;8.10;69.30;;;;;;4965141;28;20038;-92
2021/12/11 04:41:36;;;;;;;12.15;4.07;;;8.10;69.20;;;;;;4966807;28;20125;-90
2021/12/11 04:44:09;;;;;;;8.75;3.20;;;8.10;69.20;;;;;;4977202;28;20478;-91
2021/12/11 04:46:35;;;;;;;12.20;3.05;;;8.10;69.10;;;;;;5004098;28;20350;-91
2021/12/11 04:49:10;;;;;;;12.57;3.38;;;8.10;69.10;;;;;;5003913;28;20098;-90
2021/12/11 04:51:48;;;;;;;7.93;2.47;;;8.10;69.10;;;;;;4989598;28;20025;-92
2021/12/11 05:00:07;;;;;;;3.75;1.35;;;8.00;69.00;;;;;;4989545;28;20087;-93
2021/12/11 05:05:31;;;;;;;5.57;1.30;;;7.90;69.00;;;;;;5010781;28;20466;-91
2021/12/11 05:10:57;;;;;;;4.22;1.50;;;7.90;69.10;;;;;;4991925;28;20045;-92
2021/12/11 05:13:26;;;;;;;4.13;1.38;;;7.90;69.00;;;;;;4988293;28;20516;-91
2021/12/11 05:16:05;;;;;;;4.80;1.30;;;7.90;69.00;;;;;;4987131;28;20034;-92
2021/12/11 05:18:33;;;;;;;8.30;1.10;;;7.90;69.00;;;;;;4983069;28;20033;-89
2021/12/11 05:21:11;;;;;;;7.53;1.48;;;7.90;69.00;;;;;;4969296;28;20053;-89
2021/12/11 05:23:37;;;;;;;4.00;1.30;;;7.90;69.00;;;;;;4965571;28;20030;-92
2021/12/11 05:26:04;;;;;;;4.75;1.40;;;7.90;69.00;;;;;;4955333;28;20338;-92
2021/12/11 05:28:30;;;;;;;5.82;1.30;;;8.20;69.20;;;;;;4957403;28;20572;-92
2021/12/11 05:31:01;;;;;;;3.90;0.95;;;7.80;68.90;;;;;;4961474;28;20416;-92
2021/12/11 05:33:27;;;;;;;1.92;0.90;;;7.80;68.90;;;;;;4952213;28;20035;-93
2021/12/11 05:35:54;;;;;;;6.15;1.10;;;7.80;68.90;;;;;;4950529;28;20034;-92
2021/12/11 05:38:21;;;;;;;2.03;0.82;;;8.10;69.10;;;;;;4957824;28;20053;-93
2021/12/11 05:40:56;;;;;;;3.00;1.00;;;8.00;69.10;;;;;;4949063;28;20045;-92
2021/12/11 05:43:23;;;;;;;5.78;1.02;;;8.00;69.10;;;;;;4961654;28;20708;-91
2021/12/11 05:45:49;;;;;;;7.88;1.30;;;7.80;69.00;;;;;;4963533;28;20089;-89
2021/12/11 05:48:15;;;;;;;2.75;0.90;;;7.80;69.10;;;;;;4973542;28;20042;-92
2021/12/11 05:50:47;;;;;;;8.23;1.63;;;7.80;69.10;;;;;;4973027;28;20407;-93
2021/12/11 05:53:17;;;;;;;5.70;1.02;;;8.10;69.90;;;;;;4956681;28;20034;-90
2021/12/11 05:55:46;;;;;;;7.93;1.23;;;8.30;69.50;;;;;;4959747;28;20038;-92
2021/12/11 05:58:14;;;;;;;6.65;1.10;;;8.10;69.40;;;;;;4952815;28;20150;-93
2021/12/11 06:00:47;;;;;;;5.70;1.20;;;8.20;69.50;;;;;;4956843;28;20048;-92
2021/12/11 06:03:14;;;;;;;4.05;0.82;;;7.80;69.20;;;;;;4986666;28;20058;-91
2021/12/11 06:05:41;;;;;;;4.38;0.88;;;8.20;69.50;;;;;;4958480;28;20235;-92
2021/12/11 06:08:09;;;;;;;5.70;1.27;;;7.90;69.40;;;;;;4976587;28;20034;-92
2021/12/11 06:10:36;;;;;;;4.40;1.17;;;7.80;69.30;;;;;;4965639;28;20041;-90
2021/12/11 06:13:03;;;;;;;2.42;0.68;;;8.20;69.60;;;;;;4959298;28;20027;-91
2021/12/11 06:15:30;;;;;;;2.90;1.05;;;8.20;69.50;;;;;;4951951;28;20045;-92
2021/12/11 06:17:57;;;;;;;3.92;1.00;;;7.80;69.40;;;;;;4971447;28;20030;-93
2021/12/11 06:20:29;;;;;;;6.60;1.20;;;8.30;69.60;;;;;;4952844;28;20050;-91
2021/12/11 06:22:55;;;;;;;7.45;1.15;;;7.90;69.40;;;;;;4985633;28;20042;-92
2021/12/11 06:25:31;;;;;;;5.72;1.10;;;8.30;69.70;;;;;;4978464;28;20117;-90
2021/12/11 06:27:56;;;;;;;4.25;1.17;;;7.80;69.30;;;;;;4968793;28;20050;-92
2021/12/11 06:30:23;;;;;;;7.95;2.75;;;7.80;69.40;;;;;;4958446;28;20049;-89
2021/12/11 06:32:53;;;;;;;7.10;2.83;;;7.80;69.30;;;;;;4967920;28;20080;-91
2021/12/11 06:35:56;;;;;;;7.57;3.20;;;7.90;69.30;;;;;;4945012;28;20035;-92
2021/12/11 06:38:26;;;;;;;6.75;2.22;;;7.80;69.20;;;;;;4957222;28;20030;-90
2021/12/11 06:40:54;;;;;;;6.47;2.60;;;8.20;69.40;;;;;;4953468;28;20054;-90
2021/12/11 06:43:20;;;;;;;6.78;2.42;;;7.80;69.20;;;;;;4951777;28;20066;-92
2021/12/11 06:45:46;;;;;;;7.90;2.33;;;7.80;69.30;;;;;;4969020;28;20543;-91
2021/12/11 06:48:12;;;;;;;7.38;2.60;;;7.80;69.30;;;;;;4967299;28;20862;-92
2021/12/11 06:50:38;;;;;;;7.45;2.10;;;7.80;69.30;;;;;;4997410;28;20048;-90
2021/12/11 06:53:11;;;;;;;3.70;1.85;;;7.80;69.30;;;;;;4977886;28;20007;-92
2021/12/11 06:55:37;;;;;;;8.55;2.17;;;8.40;69.60;;;;;;4972938;28;20038;-92
2021/12/11 06:58:04;;;;;;;4.93;2.10;;;7.80;69.40;;;;;;4951770;28;20088;-92
2021/12/11 07:00:30;;;;;;;7.60;2.00;;;8.30;69.50;;;;;;4967321;28;20053;-92
2021/12/11 07:02:56;;;;;;;8.82;2.13;;;7.80;69.40;;;;;;4964491;28;20030;-93
2021/12/11 07:05:22;;;;;;;6.72;2.40;;;7.80;69.30;;;;;;4966700;28;20030;-92
2021/12/11 07:07:48;;;;;;;11.70;2.53;;;7.80;69.40;;;;;;4962705;28;20045;-92
2021/12/11 07:10:19;;;;;;;5.82;2.03;;;7.80;69.40;;;;;;4953612;28;20018;-92
2021/12/11 07:12:46;;;;;;;5.25;1.83;;;7.80;69.30;;;;;;4967378;28;20034;-93
2021/12/11 07:15:12;;;;;;;7.53;1.30;;;8.30;69.60;;;;;;4953094;28;20410;-92
2021/12/11 07:17:39;;;;;;;8.60;1.52;;;7.80;69.30;;;;;;4949762;28;20030;-88
2021/12/11 07:20:09;;;;;;;8.98;1.88;;;8.20;69.60;;;;;;4957563;28;20042;-92
2021/12/11 07:22:39;;;;;;;8.23;2.38;;;7.90;69.50;;;;;;4959670;28;20482;-92
2021/12/11 07:25:20;;;;;;;5.43;2.08;;;8.40;69.80;;;;;;4956216;28;20035;-93
2021/12/11 07:27:48;;;;;;;10.40;3.03;;;7.80;69.50;;;;;;4948526;28;20118;-93
2021/12/11 07:30:15;;;;;;;12.63;7.35;;;7.80;69.80;;;;;;4962372;28;20042;-92
2021/12/11 07:32:42;;;;;;;16.30;7.15;;;8.20;69.80;;;;;;4967437;28;20030;-90
2021/12/11 07:35:09;;;;;;;13.95;6.57;;;7.80;69.60;;;;;;4953029;28;20034;-92
2021/12/11 07:37:35;;;;;;;11.68;4.60;;;7.80;69.60;;;;;;4945519;28;20034;-93
2021/12/11 07:40:03;;;;;;;20.15;5.22;;;8.30;69.90;;;;;;4966716;28;20041;-93
2021/12/11 07:42:28;;;;;;;17.55;4.90;;;7.80;69.60;;;;;;4971707;28;20057;-92
2021/12/11 07:44:54;;;;;;;26.77;6.88;;;8.50;70.10;;;;;;4957845;28;20514;-92
2021/12/11 07:47:20;;;;;;;26.40;6.55;;;7.80;69.70;;;;;;4971581;28;20124;-92
2021/12/11 07:49:46;;;;;;;15.18;4.72;;;7.90;69.80;;;;;;4948065;28;20523;-92
2021/12/11 07:52:11;;;;;;;17.40;4.68;;;7.90;69.80;;;;;;4947070;28;20408;-93
2021/12/11 07:54:37;;;;;;;11.95;3.40;;;7.80;69.70;;;;;;4948518;28;20041;-92
2021/12/11 07:57:03;;;;;;;7.70;2.95;;;7.90;69.80;;;;;;4954812;28;20053;-94
2021/12/11 07:59:29;;;;;;;17.45;8.93;;;7.90;69.80;;;;;;4957249;28;20057;-91
2021/12/11 08:01:55;;;;;;;15.15;5.85;;;7.90;70.00;;;;;;4957183;28;20039;-94
2021/12/11 08:04:22;;;;;;;14.68;6.90;;;7.90;70.00;;;;;;4956301;28;20037;-88
2021/12/11 08:06:49;;;;;;;16.13;4.95;;;8.00;69.90;;;;;;4954516;28;20093;-89
2021/12/11 08:09:20;;;;;;;8.48;3.25;;;8.40;70.10;;;;;;4960373;28;20029;-91
2021/12/11 08:11:48;;;;;;;6.00;3.28;;;8.30;70.00;;;;;;4967465;28;20034;-91
2021/12/11 08:14:13;;;;;;;8.00;2.22;;;8.00;69.90;;;;;;4961365;28;20034;-89
2021/12/11 08:16:47;;;;;;;14.75;2.70;;;8.00;70.00;;;;;;4956900;28;20097;-91
2021/12/11 08:19:22;;;;;;;10.23;2.95;;;7.90;70.00;;;;;;4962171;28;20057;-90
2021/12/11 08:21:53;;;;;;;9.55;2.05;;;7.90;70.10;;;;;;4957918;28;20042;-92
2021/12/11 08:24:21;;;;;;;5.45;1.65;;;7.90;70.20;;;;;;4954643;28;20042;-91
2021/12/11 08:26:50;;;;;;;7.57;2.55;;;8.50;70.60;;;;;;4959110;28;20100;-89
2021/12/11 08:29:17;;;;;;;32.25;10.52;;;7.80;70.30;;;;;;4952463;28;20034;-90
2021/12/11 08:31:46;;;;;;;34.70;11.30;;;8.20;70.60;;;;;;4974193;28;20062;-89
2021/12/11 08:34:12;;;;;;;28.75;8.70;;;7.80;70.40;;;;;;4981489;28;20528;-92
2021/12/11 08:36:39;;;;;;;16.15;4.40;;;7.80;70.40;;;;;;4978694;28;20042;-91
2021/12/11 08:39:09;;;;;;;11.55;4.22;;;7.90;70.40;;;;;;4961141;28;20168;-91
2021/12/11 08:41:39;;;;;;;9.40;3.40;;;7.90;70.50;;;;;;4964359;28;20035;-91
2021/12/11 08:44:10;;;;;;;8.32;2.65;;;7.90;70.50;;;;;;4959559;28;20030;-91
2021/12/11 08:46:38;;;;;;;12.80;3.17;;;7.90;70.50;;;;;;4947611;28;20088;-90
2021/12/11 08:49:15;;;;;;;12.63;3.22;;;7.90;70.50;;;;;;4973318;28;20526;-92
2021/12/11 08:51:48;;;;;;;12.98;3.42;;;7.90;70.60;;;;;;4957712;28;20058;-90
2021/12/11 08:54:16;;;;;;;14.65;5.53;;;7.90;70.70;;;;;;4984494;28;20045;-89
2021/12/11 08:56:42;;;;;;;11.32;4.55;;;7.90;70.70;;;;;;4970402;28;20030;-92
2021/12/11 08:59:13;;;;;;;8.48;4.43;;;7.90;70.80;;;;;;4958663;28;20040;-92
2021/12/11 09:01:50;;;;;;;12.82;4.20;;;7.90;70.80;;;;;;4947616;28;20528;-92
2021/12/11 09:04:22;;;;;;;9.27;2.50;;;8.40;71.10;;;;;;4985271;28;20034;-92
2021/12/11 09:06:52;;;;;;;9.35;2.95;;;7.90;70.80;;;;;;4980990;28;20046;-92
2021/12/11 09:09:33;;;;;;;16.52;5.10;;;7.90;70.80;;;;;;4952270;28;20043;-92
2021/12/11 09:12:26;;;;;;;7.30;2.85;;;7.90;70.80;;;;;;4967193;28;20042;-91
2021/12/11 09:15:11;;;;;;;8.95;3.33;;;7.90;70.90;;;;;;4969452;28;20043;-92
2021/12/11 09:17:47;;;;;;;18.88;5.95;;;7.90;70.90;;;;;;4955290;28;20031;-92
2021/12/11 09:20:46;;;;;;;12.18;3.40;;;7.90;71.50;;;;;;4980608;28;20061;-89
2021/12/11 09:23:29;;;;;;;8.18;2.85;;;7.90;71.00;;;;;;4954939;28;20045;-89
2021/12/11 09:26:05;;;;;;;8.75;2.25;;;7.90;71.00;;;;;;4983659;28;20034;-91
2021/12/11 09:29:08;;;;;;;11.45;2.10;;;7.90;70.90;;;;;;4982752;28;20495;-92
2021/12/11 09:32:04;;;;;;;5.53;1.75;;;7.90;71.00;;;;;;4962670;28;20048;-91
2021/12/11 09:34:45;;;;;;;6.97;2.60;;;8.10;71.10;;;;;;4987715;28;20040;-89
2021/12/11 09:37:12;;;;;;;4.95;2.25;;;8.00;71.10;;;;;;4980114;28;20630;-92
2021/12/11 09:39:42;;;;;;;5.93;1.75;;;8.00;71.10;;;;;;4996439;28;20124;-91
2021/12/11 09:42:08;;;;;;;7.80;2.03;;;8.00;71.20;;;;;;4979173;28;20037;-91
2021/12/11 09:44:43;;;;;;;4.68;1.48;;;8.00;71.30;;;;;;5009174;28;20527;-92
2021/12/11 09:47:34;;;;;;;7.28;1.48;;;8.20;71.40;;;;;;5013841;28;20037;-92
2021/12/11 09:50:09;;;;;;;7.72;2.00;;;8.00;71.40;;;;;;4957018;28;20037;-92
2021/12/11 09:52:38;;;;;;;7.38;3.05;;;8.10;71.40;;;;;;4982489;28;20081;-91
2021/12/11 09:55:39;;;;;;;6.00;2.00;;;8.20;71.50;;;;;;5003212;28;20511;-91
2021/12/11 09:58:11;;;;;;;9.88;2.95;;;8.10;72.20;;;;;;4971358;28;20045;-92
2021/12/11 10:00:49;;;;;;;14.57;3.72;;;8.10;71.50;;;;;;4958756;28;20083;-92
2021/12/11 10:03:23;;;;;;;9.90;3.80;;;8.10;71.60;;;;;;4977948;28;20026;-91
2021/12/11 10:05:56;;;;;;;8.88;3.15;;;8.50;71.80;;;;;;4990996;28;20120;-91
2021/12/11 10:08:37;;;;;;;9.68;2.80;;;8.10;71.70;;;;;;4969516;28;20068;-91
2021/12/11 10:11:11;;;;;;;9.73;2.45;;;8.10;71.70;;;;;;4984570;28;20083;-91
2021/12/11 10:13:55;;;;;;;8.18;2.70;;;8.10;71.80;;;;;;5014192;28;20040;-92
2021/12/11 10:16:26;;;;;;;10.35;4.10;;;8.10;71.80;;;;;;5003944;28;20030;-92
2021/12/11 10:18:54;;;;;;;11.90;2.70;;;8.10;71.80;;;;;;5002784;28;20029;-92
2021/12/11 10:21:27;;;;;;;10.88;2.63;;;8.10;71.80;;;;;;4982229;28;20039;-91
2021/12/11 10:23:56;;;;;;;6.60;1.92;;;8.10;71.90;;;;;;4990131;28;20030;-92
2021/12/11 10:26:25;;;;;;;5.95;2.42;;;8.60;72.20;;;;;;5000726;28;20117;-91
2021/12/11 10:28:56;;;;;;;5.97;2.45;;;8.20;72.00;;;;;;4983467;28;20042;-91
2021/12/11 10:31:31;;;;;;;9.63;2.70;;;8.20;72.00;;;;;;4987912;28;20038;-91
2021/12/11 10:34:01;;;;;;;9.13;3.20;;;8.30;72.20;;;;;;4989053;28;20030;-92
2021/12/11 10:36:32;;;;;;;8.32;2.47;;;8.20;72.10;;;;;;4994167;28;20057;-90
2021/12/11 10:39:04;;;;;;;12.48;3.05;;;8.20;72.20;;;;;;4972207;28;20049;-90
2021/12/11 10:41:30;;;;;;;13.82;2.78;;;8.30;72.30;;;;;;4978320;28;20396;-93
2021/12/11 10:44:26;;;;;;;12.35;3.85;;;8.30;72.30;;;;;;4991247;28;20034;-93
2021/12/11 10:47:14;;;;;;;7.35;2.47;;;8.30;72.40;;;;;;4995404;28;20129;-92
2021/12/11 10:49:42;;;;;;;10.40;2.33;;;8.30;72.40;;;;;;4990225;28;20045;-92
2021/12/11 10:52:22;;;;;;;8.45;2.58;;;8.70;72.60;;;;;;4970024;28;20506;-95
2021/12/11 10:54:51;;;;;;;5.20;1.75;;;8.30;72.50;;;;;;4986924;28;20085;-90
2021/12/11 10:57:18;;;;;;;9.85;1.90;;;8.30;72.50;;;;;;5000438;28;20041;-93
2021/12/11 10:59:48;;;;;;;9.52;2.65;;;8.30;72.60;;;;;;4996780;28;20045;-92
2021/12/11 11:02:24;;;;;;;9.00;2.60;;;8.40;72.70;;;;;;4985655;28;20045;-91
2021/12/11 11:05:05;;;;;;;9.02;2.10;;;8.40;72.90;;;;;;4969898;28;20124;-94
2021/12/11 11:07:31;;;;;;;6.57;2.10;;;8.40;73.00;;;;;;4978506;28;20077;-92
2021/12/11 11:10:00;;;;;;;6.53;2.00;;;8.50;73.00;;;;;;4984863;28;20160;-92
2021/12/11 11:12:28;;;;;;;12.00;2.35;;;8.50;73.00;;;;;;4966543;28;20033;-90
2021/12/11 11:14:55;;;;;;;8.43;2.22;;;8.50;73.00;;;;;;4970121;28;20026;-91
2021/12/11 11:17:29;;;;;;;7.25;2.10;;;8.50;73.10;;;;;;4984900;28;20487;-92
2021/12/11 11:19:56;;;;;;;7.27;2.17;;;8.80;73.40;;;;;;4973317;28;20049;-92
2021/12/11 11:22:32;;;;;;;6.78;2.05;;;8.60;73.30;;;;;;4972501;28;20027;-92
2021/12/11 11:25:19;;;;;;;5.47;2.03;;;8.60;73.40;;;;;;4974951;28;20063;-91
2021/12/11 11:27:48;;;;;;;6.63;1.80;;;8.60;73.50;;;;;;4993430;28;20035;-92
2021/12/11 11:30:20;;;;;;;8.02;2.13;;;8.70;73.60;;;;;;4979709;28;20504;-91
2021/12/11 11:32:46;;;;;;;7.15;2.50;;;8.60;73.60;;;;;;4989573;28;20556;-92
2021/12/11 11:35:22;;;;;;;11.65;1.67;;;8.60;73.80;;;;;;4978215;28;20572;-91
2021/12/11 11:37:54;;;;;;;10.05;1.90;;;8.60;73.90;;;;;;4983735;28;20084;-91
2021/12/11 11:40:27;;;;;;;10.15;2.45;;;8.60;74.00;;;;;;4985463;28;20033;-92
2021/12/11 11:42:54;;;;;;;5.75;2.10;;;8.60;74.10;;;;;;4981597;28;20046;-92
2021/12/11 11:45:20;;;;;;;6.90;2.97;;;9.00;74.40;;;;;;4998432;28;20120;-91
2021/12/11 11:47:46;;;;;;;6.90;2.20;;;8.70;74.40;;;;;;4990555;28;20235;-92
2021/12/11 11:50:18;;;;;;;7.63;2.30;;;8.70;75.00;;;;;;5001976;28;20561;-89
2021/12/11 11:52:44;;;;;;;8.88;2.30;;;8.70;74.50;;;;;;5001082;28;20037;-90
2021/12/11 11:55:24;;;;;;;8.48;2.17;;;8.80;74.60;;;;;;5003422;28;20160;-91
2021/12/11 11:57:52;;;;;;;6.35;2.28;;;8.80;74.60;;;;;;4997459;28;20410;-92
2021/12/11 12:00:35;;;;;;;9.85;2.20;;;8.80;74.70;;;;;;4977078;28;20061;-92
2021/12/11 12:03:01;;;;;;;10.88;2.95;;;8.80;74.70;;;;;;4959844;28;20034;-91
2021/12/11 12:05:31;;;;;;;9.18;2.50;;;9.10;74.90;;;;;;4990235;28;20034;-89
2021/12/11 12:07:57;;;;;;;6.18;2.00;;;9.20;75.00;;;;;;4995652;28;20108;-92
2021/12/11 12:10:26;;;;;;;8.45;2.55;;;9.20;75.00;;;;;;4995452;28;20042;-92
2021/12/11 12:12:54;;;;;;;8.93;1.88;;;8.90;74.90;;;;;;4981321;28;20042;-93
2021/12/11 12:15:31;;;;;;;9.02;2.25;;;9.30;75.80;;;;;;4997320;28;20035;-91
2021/12/11 12:17:58;;;;;;;8.05;1.90;;;8.90;75.00;;;;;;4968211;28;20087;-89
2021/12/11 12:20:25;;;;;;;9.65;2.30;;;9.60;75.40;;;;;;4981666;28;20049;-89
2021/12/11 12:22:53;;;;;;;6.00;2.53;;;9.00;75.00;;;;;;4966107;28;20120;-89
2021/12/11 12:25:20;;;;;;;5.43;2.13;;;9.20;75.20;;;;;;4981938;28;20100;-91
2021/12/11 12:27:47;;;;;;;8.68;2.25;;;9.10;75.10;;;;;;4966924;28;20077;-92
2021/12/11 12:30:21;;;;;;;9.15;2.38;;;9.10;75.10;;;;;;4982742;28;20124;-92
2021/12/11 12:32:48;;;;;;;9.68;2.45;;;9.10;75.20;;;;;;4999708;28;20069;-91
2021/12/11 12:35:17;;;;;;;7.90;2.25;;;9.40;75.50;;;;;;4981646;28;20163;-90
2021/12/11 12:37:44;;;;;;;6.43;2.05;;;9.10;75.30;;;;;;4963091;28;20211;-92
2021/12/11 12:40:28;;;;;;;8.05;2.78;;;9.20;75.30;;;;;;4940751;28;20066;-92
2021/12/11 12:43:04;;;;;;;6.38;2.20;;;9.50;75.60;;;;;;4949035;28;20035;-91
2021/12/11 12:45:44;;;;;;;8.13;2.15;;;9.20;75.40;;;;;;4968013;28;20040;-92
2021/12/11 12:48:18;;;;;;;14.98;2.90;;;9.70;75.80;;;;;;4958496;28;20030;-92
2021/12/11 12:50:53;;;;;;;15.32;4.15;;;9.30;75.60;;;;;;4971382;28;20042;-90
2021/12/11 12:53:20;;;;;;;;;;;9.30;75.60;;;;;;4976016;28;20503;-92
2021/12/11 12:55:54;;;;;;;11.18;3.00;;;9.30;75.60;;;;;;4978634;28;19937;-90
2021/12/11 12:58:42;;;;;;;15.35;3.13;;;9.30;75.40;;;;;;4977497;28;20026;-89
2021/12/11 13:01:23;;;;;;;5.40;1.88;;;9.30;75.50;;;;;;4989122;28;20045;-91
2021/12/11 13:03:51;;;;;;;10.38;2.53;;;9.40;75.60;;;;;;4961147;28;20046;-89
2021/12/11 13:06:30;;;;;;;13.43;2.67;;;9.30;76.10;;;;;;4960282;28;20399;-91
2021/12/11 13:09:17;;;;;;;11.43;2.47;;;9.40;75.70;;;;;;4974395;28;20073;-91
2021/12/11 13:11:55;;;;;;;14.40;2.78;;;9.40;75.80;;;;;;4980122;28;20034;-91
2021/12/11 13:14:22;;;;;;;8.27;2.03;;;9.40;75.80;;;;;;4957710;28;20030;-92
2021/12/11 13:16:54;;;;;;;11.40;1.98;;;9.40;75.80;;;;;;4963732;28;20113;-91
2021/12/11 13:19:27;;;;;;;9.30;1.90;;;9.80;76.10;;;;;;4973218;28;20039;-92
2021/12/11 13:22:18;;;;;;;7.32;1.58;;;9.50;76.00;;;;;;4999272;28;20034;-91
2021/12/11 13:24:49;;;;;;;7.45;2.10;;;9.50;75.90;;;;;;4966508;28;20026;-91
2021/12/11 13:27:20;;;;;;;7.90;2.38;;;9.50;75.80;;;;;;4988367;28;20034;-91
2021/12/11 13:29:52;;;;;;;8.80;1.85;;;9.60;75.90;;;;;;4984838;28;20062;-92
2021/12/11 13:32:23;;;;;;;11.43;2.20;;;9.60;75.80;;;;;;4985373;28;20038;-92
2021/12/11 13:34:54;;;;;;;10.77;2.42;;;9.60;75.80;;;;;;4987735;28;20092;-92